createdAt,value
2022-09-17T00:02:30.449Z,11.02
2022-09-17T00:07:35.303Z,11.05
2022-09-17T00:12:42.886Z,11.11
2022-09-17T00:17:47.735Z,11.14
2022-09-17T00:22:52.471Z,11.22
2022-09-17T00:27:59.926Z,11.20
2022-09-17T00:33:05.062Z,11.16
2022-09-17T00:38:10.091Z,11.35
2022-09-17T00:43:17.735Z,11.22
2022-09-17T00:48:22.699Z,11.26
2022-09-17T00:53:28.452Z,11.19
2022-09-17T00:58:41.313Z,11.25
2022-09-17T01:03:46.561Z,11.19
2022-09-17T01:09:04.672Z,11.01
2022-09-17T01:14:26.352Z,10.99
2022-09-17T01:19:55.240Z,11.07
2022-09-17T01:25:23.180Z,10.88
2022-09-17T01:30:43.697Z,10.69
2022-09-17T01:35:55.977Z,10.81
2022-09-17T01:41:09.843Z,10.61
2022-09-17T01:46:23.023Z,10.73
2022-09-17T01:51:32.163Z,10.80
2022-09-17T01:56:40.645Z,10.88
2022-09-17T02:01:53.710Z,10.90
2022-09-17T02:07:03.651Z,10.97
2022-09-17T02:12:12.797Z,10.84
2022-09-17T02:17:25.244Z,10.87
2022-09-17T02:22:36.722Z,10.87
2022-09-17T02:27:50.972Z,11.02
2022-09-17T02:32:59.198Z,10.91
2022-09-17T02:38:06.793Z,11.04
2022-09-17T02:43:19.280Z,10.94
2022-09-17T02:48:40.913Z,11.03
2022-09-17T02:53:54.302Z,11.05
2022-09-17T02:59:05.827Z,10.99
2022-09-17T03:04:16.392Z,11.03
2022-09-17T03:09:21.180Z,11.10
2022-09-17T03:14:26.105Z,11.11
2022-09-17T03:19:33.568Z,11.20
2022-09-17T03:24:38.349Z,11.14
2022-09-17T03:29:43.225Z,11.14
2022-09-17T03:34:50.699Z,11.19
2022-09-17T03:39:55.582Z,11.18
2022-09-17T03:45:00.620Z,11.19
2022-09-17T03:50:09.631Z,11.16
2022-09-17T03:55:17.964Z,11.16
2022-09-17T04:00:22.830Z,11.28
2022-09-17T04:05:30.302Z,11.23
2022-09-17T04:10:35.287Z,11.21
2022-09-17T04:15:40.229Z,11.15
2022-09-17T04:20:47.652Z,11.15
2022-09-17T04:25:54.504Z,11.19
2022-09-17T04:30:59.419Z,11.14
2022-09-17T04:36:08.210Z,11.14
2022-09-17T04:41:13.093Z,11.20
2022-09-17T04:46:18.461Z,11.17
2022-09-17T04:51:25.901Z,10.96
2022-09-17T04:56:30.738Z,11.08
2022-09-17T05:01:35.821Z,10.96
2022-09-17T05:06:43.357Z,10.92
2022-09-17T05:11:48.298Z,10.96
2022-09-17T05:16:53.080Z,10.87
2022-09-17T05:22:00.421Z,10.91
2022-09-17T05:27:05.278Z,10.85
2022-09-17T05:32:10.192Z,10.67
2022-09-17T05:37:17.675Z,10.73
2022-09-17T05:42:22.501Z,10.99
2022-09-17T05:47:31.906Z,10.85
2022-09-17T05:52:39.279Z,10.83
2022-09-17T05:57:44.140Z,10.88
2022-09-17T06:02:49.468Z,10.81
2022-09-17T06:07:56.968Z,10.86
2022-09-17T06:13:03.023Z,10.77
2022-09-17T06:18:08.024Z,10.69
2022-09-17T06:23:16.135Z,10.72
2022-09-17T06:28:22.304Z,10.87
2022-09-17T06:33:27.982Z,10.85
2022-09-17T06:38:38.062Z,10.74
2022-09-17T06:43:43.158Z,10.75
2022-09-17T06:48:48.319Z,11.04
2022-09-17T06:53:55.756Z,10.96
2022-09-17T06:59:00.621Z,10.95
2022-09-17T07:04:06.235Z,11.09
2022-09-17T07:09:14.126Z,11.12
2022-09-17T07:14:24.018Z,11.10
2022-09-17T07:19:28.776Z,11.14
2022-09-17T07:24:37.966Z,11.19
2022-09-17T07:29:42.877Z,11.11
2022-09-17T07:34:50.588Z,11.10
2022-09-17T07:39:57.993Z,11.14
2022-09-17T07:45:02.949Z,11.13
2022-09-17T07:50:08.945Z,11.12
2022-09-17T07:55:16.888Z,11.14
2022-09-17T08:00:21.904Z,11.22
2022-09-17T08:05:28.240Z,11.30
2022-09-17T08:10:36.169Z,11.67
2022-09-17T08:15:43.218Z,11.71
2022-09-17T08:20:48.049Z,11.74
2022-09-17T08:25:58.071Z,11.84
2022-09-17T08:31:04.671Z,11.81
2022-09-17T08:36:11.729Z,11.66
2022-09-17T08:41:30.019Z,11.89
2022-09-17T08:46:36.524Z,11.99
2022-09-17T08:51:54.699Z,11.87
2022-09-17T08:57:15.416Z,12.00
2022-09-17T09:02:31.987Z,12.40
2022-09-17T09:07:42.376Z,12.74
2022-09-17T09:12:51.422Z,13.35
2022-09-17T09:17:57.540Z,13.40
2022-09-17T09:23:10.649Z,13.91
2022-09-17T09:28:36.001Z,14.32
2022-09-17T09:33:47.694Z,13.58
2022-09-17T09:38:59.194Z,14.42
2022-09-17T09:44:12.210Z,15.35
2022-09-17T09:49:29.550Z,15.20
2022-09-17T09:54:55.084Z,14.29
2022-09-17T10:00:35.133Z,13.97
2022-09-17T10:05:42.600Z,14.14
2022-09-17T10:10:59.674Z,13.98
2022-09-17T10:16:20.602Z,13.51
2022-09-17T10:21:33.096Z,14.55
2022-09-17T10:26:39.714Z,14.30
2022-09-17T10:31:55.615Z,13.61
2022-09-17T10:37:01.020Z,13.86
2022-09-17T10:42:07.906Z,14.67
2022-09-17T10:47:23.872Z,14.99
2022-09-17T10:52:32.145Z,15.22
2022-09-17T10:58:05.017Z,14.54
2022-09-17T11:03:46.768Z,15.24
2022-09-17T11:09:04.982Z,14.49
2022-09-17T11:14:23.305Z,14.02
2022-09-17T11:19:47.339Z,14.20
2022-09-17T11:25:08.638Z,14.32
2022-09-17T11:30:22.347Z,14.96
2022-09-17T11:35:33.064Z,14.54
2022-09-17T11:40:43.190Z,13.14
2022-09-17T11:45:59.995Z,13.21
2022-09-17T11:51:23.413Z,13.36
2022-09-17T11:56:32.448Z,12.88
2022-09-17T12:01:44.394Z,12.54
2022-09-17T12:07:00.545Z,13.01
2022-09-17T12:12:21.702Z,12.48
2022-09-17T12:17:41.559Z,12.66
2022-09-17T12:22:51.025Z,13.03
2022-09-17T12:28:02.672Z,13.54
2022-09-17T12:33:26.913Z,13.78
2022-09-17T12:39:09.132Z,13.18
2022-09-17T12:44:30.597Z,13.40
2022-09-17T12:49:48.747Z,13.90
2022-09-17T12:55:25.090Z,13.93
2022-09-17T13:00:30.625Z,14.02
2022-09-17T13:06:02.835Z,14.14
2022-09-17T13:11:38.744Z,14.83
2022-09-17T13:16:48.844Z,14.80
2022-09-17T13:21:56.939Z,15.15
2022-09-17T13:27:07.724Z,14.29
2022-09-17T13:32:12.820Z,14.25
2022-09-17T13:37:22.764Z,12.98
2022-09-17T13:42:33.834Z,12.60
2022-09-17T13:47:41.788Z,12.67
2022-09-17T13:52:49.012Z,12.78
2022-09-17T13:57:56.455Z,12.82
2022-09-17T14:03:42.032Z,13.06
2022-09-17T14:08:54.855Z,12.83
2022-09-17T14:14:42.898Z,13.50
2022-09-17T14:19:55.831Z,13.66
2022-09-17T14:25:01.732Z,14.10
2022-09-17T14:30:16.805Z,14.20
2022-09-17T14:35:31.574Z,14.54
2022-09-17T14:40:37.347Z,14.61
2022-09-17T14:45:45.959Z,14.73
2022-09-17T14:50:50.804Z,14.89
2022-09-17T14:55:55.718Z,14.12
2022-09-17T15:01:03.439Z,14.41
2022-09-17T15:06:08.404Z,14.38
2022-09-17T15:11:17.791Z,14.14
2022-09-17T15:16:28.274Z,13.96
2022-09-17T15:21:37.400Z,13.76
2022-09-17T15:26:46.396Z,13.72
2022-09-17T15:31:53.921Z,13.75
2022-09-17T15:37:08.845Z,13.97
2022-09-17T15:42:26.946Z,14.11
2022-09-17T15:47:55.072Z,14.33
2022-09-17T15:53:24.263Z,14.21
2022-09-17T15:58:33.176Z,14.28
2022-09-17T16:04:10.196Z,14.14
2022-09-17T16:09:39.631Z,13.93
2022-09-17T16:14:53.246Z,13.95
2022-09-17T16:20:05.927Z,13.82
2022-09-17T16:25:11.826Z,13.63
2022-09-17T16:30:19.576Z,13.58
2022-09-17T16:35:28.858Z,13.30
2022-09-17T16:40:33.967Z,13.23
2022-09-17T16:45:39.056Z,13.19
2022-09-17T16:50:47.293Z,12.98
2022-09-17T16:55:52.129Z,12.86
2022-09-17T17:00:59.672Z,12.69
2022-09-17T17:06:08.253Z,11.56
2022-09-17T17:11:13.082Z,11.86
2022-09-17T17:16:20.685Z,11.71
2022-09-17T17:21:28.117Z,11.69
2022-09-17T17:26:33.167Z,11.67
2022-09-17T17:31:38.113Z,11.46
2022-09-17T17:36:47.885Z,11.44
2022-09-17T17:41:54.414Z,11.33
2022-09-17T17:46:59.290Z,11.24
2022-09-17T17:52:06.932Z,11.08
2022-09-17T17:57:11.903Z,11.23
2022-09-17T18:02:19.757Z,11.23
2022-09-17T18:07:27.580Z,11.24
2022-09-17T18:12:32.437Z,11.24
2022-09-17T18:17:38.571Z,11.15
2022-09-17T18:22:46.287Z,11.33
2022-09-17T18:27:51.064Z,11.26
2022-09-17T18:32:55.890Z,11.17
2022-09-17T18:38:03.369Z,11.20
2022-09-17T18:43:08.301Z,11.33
2022-09-17T18:48:13.262Z,11.18
2022-09-17T18:53:20.851Z,11.33
2022-09-17T18:58:25.863Z,11.06
2022-09-17T19:03:33.965Z,11.18
2022-09-17T19:08:41.947Z,11.20
2022-09-17T19:13:49.205Z,11.15
2022-09-17T19:18:54.503Z,10.86
2022-09-17T19:24:02.851Z,10.82
2022-09-17T19:29:09.156Z,10.77
2022-09-17T19:34:14.073Z,10.81
2022-09-17T19:39:21.515Z,10.91
2022-09-17T19:44:26.736Z,10.75
2022-09-17T19:49:31.549Z,10.89
2022-09-17T19:54:38.949Z,10.88
2022-09-17T19:59:43.888Z,10.92
2022-09-17T20:04:49.054Z,10.96
2022-09-17T20:10:00.933Z,10.88
2022-09-17T20:15:05.817Z,10.80
2022-09-17T20:20:12.266Z,10.73
2022-09-17T20:25:19.685Z,10.77
2022-09-17T20:30:24.521Z,10.40
2022-09-17T20:35:29.444Z,10.09
2022-09-17T20:40:36.977Z,10.05
2022-09-17T20:45:41.761Z,9.93
2022-09-17T20:50:46.580Z,9.85
2022-09-17T20:55:59.814Z,9.76
2022-09-17T21:01:09.515Z,9.53
2022-09-17T21:06:19.200Z,9.51
2022-09-17T21:11:27.589Z,9.44
2022-09-17T21:16:32.920Z,9.42
2022-09-17T21:21:38.237Z,9.46
2022-09-17T21:26:45.934Z,9.30
2022-09-17T21:31:51.702Z,9.50
2022-09-17T21:36:56.878Z,9.31
2022-09-17T21:42:04.350Z,9.29
2022-09-17T21:47:12.436Z,9.30
2022-09-17T21:52:17.636Z,9.27
2022-09-17T21:57:25.042Z,9.32
2022-09-17T22:02:30.546Z,9.26
2022-09-17T22:07:35.420Z,9.34
2022-09-17T22:12:43.003Z,9.16
2022-09-17T22:17:47.804Z,9.25
2022-09-17T22:22:52.758Z,9.23
2022-09-17T22:28:19.926Z,9.22
2022-09-17T22:33:26.872Z,9.31
2022-09-17T22:38:31.692Z,9.21
2022-09-17T22:43:39.078Z,9.36
2022-09-17T22:48:43.896Z,9.18
2022-09-17T22:53:48.693Z,9.16
2022-09-17T22:58:56.698Z,9.25
2022-09-17T23:04:02.844Z,9.25
2022-09-17T23:09:08.639Z,9.17
2022-09-17T23:14:17.029Z,9.21
2022-09-17T23:19:22.535Z,9.13
2022-09-17T23:24:28.997Z,9.15
2022-09-17T23:29:36.353Z,9.28
2022-09-17T23:34:41.205Z,9.13
2022-09-17T23:39:45.996Z,9.15
2022-09-17T23:44:53.417Z,9.09
2022-09-17T23:49:58.387Z,9.08
2022-09-17T23:55:03.808Z,9.02
